createdAt,value
2018-02-14T00:02:10.397Z,71.88
2018-02-14T00:04:38.526Z,72.08
2018-02-14T00:07:08.435Z,71.71
2018-02-14T00:09:37.484Z,72.51
2018-02-14T00:12:06.606Z,73.20
2018-02-14T00:14:35.213Z,73.29
2018-02-14T00:17:04.334Z,72.94
2018-02-14T00:19:33.153Z,72.37
2018-02-14T00:22:00.868Z,72.94
2018-02-14T00:24:30.253Z,71.87
2018-02-14T00:27:00.095Z,71.58
2018-02-14T00:29:30.197Z,72.16
2018-02-14T00:31:59.648Z,71.68
2018-02-14T00:34:28.370Z,70.89
2018-02-14T00:36:57.479Z,70.98
2018-02-14T00:39:25.856Z,72.34
2018-02-14T00:41:53.557Z,71.92
2018-02-14T00:44:22.312Z,72.95
2018-02-14T00:46:52.780Z,72.42
2018-02-14T00:49:20.609Z,72.11
2018-02-14T00:51:48.146Z,71.79
2018-02-14T00:54:15.697Z,72.61
2018-02-14T00:56:43.380Z,72.14
2018-02-14T00:59:10.926Z,73.36
2018-02-14T01:01:38.503Z,72.62
2018-02-14T01:04:06.106Z,72.76
2018-02-14T01:06:33.659Z,73.95
2018-02-14T01:09:01.284Z,74.11
2018-02-14T01:11:28.844Z,73.43
2018-02-14T01:13:56.386Z,73.58
2018-02-14T01:16:23.966Z,73.96
2018-02-14T01:18:51.550Z,73.34
2018-02-14T01:21:20.099Z,73.61
2018-02-14T01:23:47.763Z,73.13
2018-02-14T01:26:15.327Z,73.07
2018-02-14T01:28:42.982Z,74.37
2018-02-14T01:31:10.548Z,73.50
2018-02-14T01:33:38.106Z,74.24
2018-02-14T01:36:05.633Z,75.52
2018-02-14T01:38:33.192Z,74.83
2018-02-14T01:41:00.779Z,73.66
2018-02-14T01:43:28.310Z,73.05
2018-02-14T01:45:56.012Z,73.08
2018-02-14T01:48:23.541Z,72.96
2018-02-14T01:50:51.099Z,73.28
2018-02-14T01:53:18.678Z,73.87
2018-02-14T01:55:46.275Z,74.45
2018-02-14T01:58:13.807Z,74.75
2018-02-14T02:00:41.458Z,74.06
2018-02-14T02:03:09.027Z,73.94
2018-02-14T02:05:36.563Z,73.87
2018-02-14T02:08:04.137Z,73.53
2018-02-14T02:10:31.697Z,74.03
2018-02-14T02:12:59.243Z,74.22
2018-02-14T02:15:26.813Z,74.40
2018-02-14T02:17:54.476Z,73.89
2018-02-14T02:20:21.997Z,73.76
2018-02-14T02:22:49.651Z,73.68
2018-02-14T02:25:17.178Z,74.00
2018-02-14T02:27:44.703Z,74.01
2018-02-14T02:30:12.788Z,74.05
2018-02-14T02:32:40.313Z,75.66
2018-02-14T02:35:07.863Z,75.00
2018-02-14T02:37:35.465Z,74.21
2018-02-14T02:40:14.810Z,75.48
2018-02-14T02:42:43.117Z,75.73
2018-02-14T02:45:10.672Z,75.43
2018-02-14T02:47:38.202Z,75.39
2018-02-14T02:50:05.774Z,75.14
2018-02-14T02:52:33.302Z,75.32
2018-02-14T02:55:00.830Z,75.55
2018-02-14T02:57:28.383Z,75.34
2018-02-14T02:59:55.902Z,75.25
2018-02-14T03:02:23.455Z,75.03
2018-02-14T03:04:50.988Z,74.56
2018-02-14T03:07:18.542Z,75.11
2018-02-14T03:09:46.071Z,74.62
2018-02-14T03:12:13.644Z,74.44
2018-02-14T03:14:41.174Z,74.67
2018-02-14T03:17:08.804Z,74.83
2018-02-14T03:19:36.362Z,74.95
2018-02-14T03:22:03.922Z,74.84
2018-02-14T03:24:31.484Z,74.86
2018-02-14T03:26:59.038Z,74.51
2018-02-14T03:29:26.614Z,74.36
2018-02-14T03:31:54.168Z,74.76
2018-02-14T03:34:21.777Z,75.59
2018-02-14T03:36:49.569Z,74.80
2018-02-14T03:39:17.120Z,74.74
2018-02-14T03:41:44.650Z,74.87
2018-02-14T03:44:12.270Z,74.96
2018-02-14T03:46:39.827Z,75.08
2018-02-14T03:49:07.380Z,75.42
2018-02-14T03:51:35.044Z,76.42
2018-02-14T03:54:02.550Z,77.02
2018-02-14T03:56:30.163Z,76.20
2018-02-14T03:58:57.687Z,78.16
2018-02-14T04:01:25.291Z,77.29
2018-02-14T04:03:52.842Z,76.53
2018-02-14T04:06:20.397Z,75.86
2018-02-14T04:08:48.060Z,76.02
2018-02-14T04:11:15.598Z,76.00
2018-02-14T04:13:44.178Z,75.74
2018-02-14T04:16:11.703Z,75.56
2018-02-14T04:18:39.321Z,75.74
2018-02-14T04:21:06.832Z,75.98
2018-02-14T04:23:34.442Z,75.92
2018-02-14T04:26:02.013Z,75.58
2018-02-14T04:28:29.632Z,75.97
2018-02-14T04:30:57.221Z,76.62
2018-02-14T04:33:24.747Z,76.73
2018-02-14T04:35:52.294Z,77.14
2018-02-14T04:38:19.823Z,76.39
2018-02-14T04:40:47.358Z,76.22
2018-02-14T04:43:14.927Z,76.14
2018-02-14T04:45:42.475Z,76.14
2018-02-14T04:48:10.137Z,76.83
2018-02-14T04:50:37.684Z,77.16
2018-02-14T04:53:05.254Z,76.88
2018-02-14T04:55:32.788Z,76.86
2018-02-14T04:58:00.486Z,76.44
2018-02-14T05:00:28.045Z,76.42
2018-02-14T05:02:55.569Z,76.49
2018-02-14T05:05:23.223Z,76.76
2018-02-14T05:07:50.819Z,76.60
2018-02-14T05:10:18.478Z,76.78
2018-02-14T05:12:46.007Z,76.38
2018-02-14T05:15:13.558Z,76.83
2018-02-14T05:17:41.086Z,76.77
2018-02-14T05:20:08.717Z,77.03
2018-02-14T05:22:36.320Z,77.34
2018-02-14T05:25:03.894Z,77.11
2018-02-14T05:27:31.419Z,76.61
2018-02-14T05:29:59.142Z,76.72
2018-02-14T05:32:26.699Z,76.26
2018-02-14T05:34:54.277Z,76.97
2018-02-14T05:37:21.939Z,76.66
2018-02-14T05:39:49.496Z,77.87
2018-02-14T05:42:17.160Z,76.78
2018-02-14T05:44:45.235Z,77.77
2018-02-14T05:47:12.815Z,78.54
2018-02-14T05:49:40.350Z,77.91
2018-02-14T05:52:07.888Z,78.38
2018-02-14T05:54:35.444Z,77.91
2018-02-14T05:57:02.973Z,77.23
2018-02-14T05:59:30.598Z,77.35
2018-02-14T06:01:58.128Z,78.36
2018-02-14T06:04:25.707Z,77.59
2018-02-14T06:06:53.264Z,77.20
2018-02-14T06:09:20.930Z,77.80
2018-02-14T06:11:48.486Z,77.46
2018-02-14T06:14:16.149Z,77.57
2018-02-14T06:16:43.664Z,77.64
2018-02-14T06:19:11.216Z,77.20
2018-02-14T06:21:38.827Z,76.79
2018-02-14T06:24:06.386Z,76.83
2018-02-14T06:26:34.049Z,76.95
2018-02-14T06:29:01.574Z,77.23
2018-02-14T06:31:29.178Z,77.77
2018-02-14T06:33:56.699Z,77.57
2018-02-14T06:36:24.310Z,77.43
2018-02-14T06:38:51.847Z,77.05
2018-02-14T06:41:19.362Z,77.97
2018-02-14T06:43:47.679Z,78.21
2018-02-14T06:46:15.235Z,77.84
2018-02-14T06:48:42.842Z,77.75
2018-02-14T06:51:10.462Z,78.32
2018-02-14T06:53:38.026Z,77.87
2018-02-14T06:56:05.585Z,77.64
2018-02-14T06:58:33.153Z,77.73
2018-02-14T07:01:00.731Z,77.63
2018-02-14T07:03:28.305Z,77.17
2018-02-14T07:05:55.914Z,78.95
2018-02-14T07:08:23.479Z,78.94
2018-02-14T07:10:51.187Z,78.31
2018-02-14T07:13:19.417Z,77.87
2018-02-14T07:15:47.078Z,77.46
2018-02-14T07:18:14.594Z,78.66
2018-02-14T07:20:42.196Z,77.84
2018-02-14T07:23:09.723Z,78.50
2018-02-14T07:25:37.330Z,77.69
2018-02-14T07:28:04.855Z,77.84
2018-02-14T07:30:32.380Z,77.70
2018-02-14T07:32:59.929Z,77.47
2018-02-14T07:35:27.462Z,78.50
2018-02-14T07:37:55.021Z,77.23
2018-02-14T07:40:22.540Z,77.39
2018-02-14T07:42:50.418Z,78.32
2018-02-14T07:45:17.997Z,77.52
2018-02-14T07:47:45.554Z,76.87
2018-02-14T07:50:13.112Z,76.99
2018-02-14T07:52:40.674Z,77.22
2018-02-14T07:55:08.310Z,76.96
2018-02-14T07:57:35.862Z,77.04
2018-02-14T08:00:03.412Z,76.73
2018-02-14T08:02:30.934Z,76.58
2018-02-14T08:04:58.571Z,76.96
2018-02-14T08:07:26.094Z,76.33
2018-02-14T08:09:53.689Z,76.74
2018-02-14T08:12:23.722Z,76.36
2018-02-14T08:14:51.252Z,76.82
2018-02-14T08:17:18.850Z,76.77
2018-02-14T08:19:46.384Z,76.27
2018-02-14T08:22:13.930Z,75.71
2018-02-14T08:24:41.454Z,75.76
2018-02-14T08:27:09.006Z,76.52
2018-02-14T08:29:36.534Z,76.91
2018-02-14T08:32:04.188Z,75.11
2018-02-14T08:34:31.739Z,75.07
2018-02-14T08:36:59.300Z,74.47
2018-02-14T08:39:27.282Z,74.46
2018-02-14T08:41:54.897Z,74.34
2018-02-14T08:44:22.451Z,74.26
2018-02-14T08:46:50.014Z,74.13
2018-02-14T08:49:18.880Z,74.01
2018-02-14T08:51:46.410Z,73.25
2018-02-14T08:54:14.722Z,73.42
2018-02-14T08:56:50.164Z,72.72
2018-02-14T08:59:18.183Z,72.71
2018-02-14T09:01:45.759Z,72.82
2018-02-14T09:04:13.297Z,72.31
2018-02-14T09:06:40.971Z,72.00
2018-02-14T09:09:08.839Z,72.43
2018-02-14T09:11:36.394Z,71.87
2018-02-14T09:14:03.926Z,71.58
2018-02-14T09:16:32.208Z,71.69
2018-02-14T09:19:02.367Z,71.12
2018-02-14T09:21:30.343Z,70.99
2018-02-14T09:23:59.285Z,70.46
2018-02-14T09:26:26.869Z,70.43
2018-02-14T09:28:54.442Z,70.50
2018-02-14T09:31:22.533Z,70.29
2018-02-14T09:33:50.123Z,69.81
2018-02-14T09:36:17.720Z,70.21
2018-02-14T09:38:45.278Z,69.74
2018-02-14T09:41:13.000Z,69.68
2018-02-14T09:43:40.607Z,69.83
2018-02-14T09:46:08.130Z,69.61
2018-02-14T09:48:35.724Z,69.42
2018-02-14T09:51:03.610Z,69.85
2018-02-14T09:53:31.256Z,69.06
2018-02-14T09:55:58.823Z,69.14
2018-02-14T09:58:26.366Z,68.50
2018-02-14T10:00:53.917Z,68.86
2018-02-14T10:03:22.496Z,68.44
2018-02-14T10:05:50.054Z,68.28
2018-02-14T10:08:17.575Z,67.71
2018-02-14T10:10:45.206Z,67.14
2018-02-14T10:13:12.735Z,67.54
2018-02-14T10:15:40.308Z,66.76
2018-02-14T10:18:07.858Z,66.91
2018-02-14T10:20:35.385Z,67.14
2018-02-14T10:23:02.967Z,65.72
2018-02-14T10:25:30.545Z,66.54
2018-02-14T10:27:58.095Z,65.37
2018-02-14T10:30:25.622Z,64.90
2018-02-14T10:32:53.173Z,65.32
2018-02-14T10:35:20.749Z,64.93
2018-02-14T10:37:48.282Z,63.40
2018-02-14T10:40:15.830Z,64.23
2018-02-14T10:42:43.354Z,64.10
2018-02-14T10:45:10.909Z,62.22
2018-02-14T10:47:38.429Z,62.24
2018-02-14T10:50:05.991Z,61.50
2018-02-14T10:52:33.557Z,61.78
2018-02-14T10:55:07.962Z,61.28
2018-02-14T10:57:35.546Z,61.11
2018-02-14T11:00:03.205Z,60.36
2018-02-14T11:02:36.425Z,58.59
2018-02-14T11:05:09.629Z,59.18
2018-02-14T11:07:37.331Z,58.23
2018-02-14T11:10:05.259Z,58.82
2018-02-14T11:12:35.737Z,58.32
2018-02-14T11:15:03.340Z,57.58
2018-02-14T11:17:31.102Z,57.94
2018-02-14T11:19:59.792Z,56.62
2018-02-14T11:22:28.758Z,57.82
2018-02-14T11:24:57.671Z,57.44
2018-02-14T11:27:26.621Z,56.14
2018-02-14T11:29:55.578Z,56.87
2018-02-14T11:32:24.900Z,56.30
2018-02-14T11:34:52.411Z,55.97
2018-02-14T11:37:19.973Z,55.70
2018-02-14T11:39:47.510Z,56.38
2018-02-14T11:42:15.092Z,55.53
2018-02-14T11:44:43.881Z,55.71
2018-02-14T11:47:11.543Z,55.32
2018-02-14T11:49:39.112Z,55.04
2018-02-14T11:52:06.770Z,56.01
2018-02-14T11:54:34.322Z,54.56
2018-02-14T11:57:01.875Z,54.36
2018-02-14T11:59:29.398Z,55.75
2018-02-14T12:01:56.999Z,54.32
2018-02-14T12:04:24.558Z,55.03
2018-02-14T12:06:53.157Z,54.00
2018-02-14T12:09:21.259Z,54.09
2018-02-14T12:11:49.088Z,54.17
2018-02-14T12:14:17.867Z,54.01
2018-02-14T12:16:45.418Z,53.45
2018-02-14T12:19:15.440Z,54.71
2018-02-14T12:21:42.974Z,54.26
2018-02-14T12:24:11.175Z,53.33
2018-02-14T12:26:40.018Z,53.85
2018-02-14T12:29:09.366Z,53.13
2018-02-14T12:31:36.884Z,52.39
2018-02-14T12:34:06.129Z,53.50
2018-02-14T12:36:34.411Z,52.30
2018-02-14T12:39:02.466Z,53.50
2018-02-14T12:41:33.750Z,51.62
2018-02-14T12:44:04.485Z,50.51
2018-02-14T12:46:34.215Z,51.83
2018-02-14T12:49:01.794Z,53.04
2018-02-14T12:51:30.091Z,51.99
2018-02-14T12:53:58.577Z,50.61
2018-02-14T12:56:28.089Z,52.34
2018-02-14T12:58:55.754Z,50.23
2018-02-14T13:01:23.333Z,50.95
2018-02-14T13:03:50.965Z,51.58
2018-02-14T13:06:18.563Z,50.97
2018-02-14T13:08:46.123Z,51.08
2018-02-14T13:11:13.815Z,50.95
2018-02-14T13:13:42.371Z,50.41
2018-02-14T13:16:09.999Z,49.78
2018-02-14T13:18:37.754Z,49.81
2018-02-14T13:21:06.300Z,50.03
2018-02-14T13:23:34.321Z,49.73
2018-02-14T13:26:04.170Z,51.31
2018-02-14T13:28:34.268Z,49.38
2018-02-14T13:31:02.171Z,49.26
2018-02-14T13:33:30.263Z,49.25
2018-02-14T13:35:58.115Z,49.15
2018-02-14T13:38:25.890Z,48.77
2018-02-14T13:40:53.446Z,48.92
2018-02-14T13:43:21.526Z,48.66
2018-02-14T13:45:49.519Z,48.63
2018-02-14T13:48:17.050Z,48.69
2018-02-14T13:50:45.927Z,49.64
2018-02-14T13:53:13.476Z,48.19
2018-02-14T13:55:40.979Z,48.19
2018-02-14T13:58:13.294Z,49.67
2018-02-14T14:00:47.263Z,48.92
2018-02-14T14:03:15.245Z,47.72
2018-02-14T14:05:42.771Z,48.57
2018-02-14T14:08:10.903Z,48.60
2018-02-14T14:10:39.817Z,48.43
2018-02-14T14:13:07.399Z,48.02
2018-02-14T14:15:35.245Z,47.85
2018-02-14T14:18:02.803Z,46.95
2018-02-14T14:20:30.405Z,48.03
2018-02-14T14:22:57.958Z,46.27
2018-02-14T14:25:25.711Z,47.11
2018-02-14T14:27:53.211Z,46.34
2018-02-14T14:30:20.831Z,46.38
2018-02-14T14:32:49.345Z,46.55
2018-02-14T14:35:17.371Z,46.45
2018-02-14T14:37:44.894Z,45.26
2018-02-14T14:40:12.478Z,46.61
2018-02-14T14:42:40.052Z,47.01
2018-02-14T14:45:07.580Z,46.57
2018-02-14T14:47:35.430Z,46.82
2018-02-14T14:50:03.047Z,46.31
2018-02-14T14:52:30.612Z,46.32
2018-02-14T14:54:58.165Z,45.86
2018-02-14T14:57:25.834Z,45.24
2018-02-14T14:59:53.897Z,45.96
2018-02-14T15:02:21.558Z,47.59
2018-02-14T15:04:49.171Z,46.93
2018-02-14T15:07:16.718Z,45.59
2018-02-14T15:09:44.250Z,46.20
2018-02-14T15:12:12.029Z,46.10
2018-02-14T15:14:39.662Z,46.10
2018-02-14T15:17:07.637Z,46.48
2018-02-14T15:19:36.315Z,46.93
2018-02-14T15:22:03.877Z,46.04
2018-02-14T15:24:31.660Z,46.44
2018-02-14T15:26:59.346Z,46.29
2018-02-14T15:29:26.995Z,45.86
2018-02-14T15:31:54.637Z,46.22
2018-02-14T15:34:22.194Z,46.37
2018-02-14T15:36:51.704Z,46.26
2018-02-14T15:39:19.349Z,46.29
2018-02-14T15:41:46.858Z,45.44
2018-02-14T15:44:14.410Z,46.45
2018-02-14T15:46:41.936Z,46.13
2018-02-14T15:49:09.487Z,45.56
2018-02-14T15:51:37.013Z,45.77
2018-02-14T15:54:04.566Z,46.74
2018-02-14T15:56:32.090Z,45.10
2018-02-14T15:58:59.646Z,46.34
2018-02-14T16:01:27.598Z,46.87
2018-02-14T16:03:56.000Z,45.68
2018-02-14T16:06:23.552Z,46.61
2018-02-14T16:08:51.198Z,46.75
2018-02-14T16:11:18.757Z,46.68
2018-02-14T16:13:46.311Z,48.19
2018-02-14T16:16:15.890Z,47.44
2018-02-14T16:18:43.837Z,47.83
2018-02-14T16:21:13.224Z,48.74
2018-02-14T16:23:41.890Z,48.33
2018-02-14T16:26:09.640Z,48.17
2018-02-14T16:28:38.749Z,47.89
2018-02-14T16:31:07.164Z,49.37
2018-02-14T16:33:34.799Z,49.45
2018-02-14T16:36:07.079Z,49.66
2018-02-14T16:38:37.510Z,49.08
2018-02-14T16:41:05.537Z,49.57
2018-02-14T16:43:34.566Z,49.75
2018-02-14T16:46:02.591Z,51.03
2018-02-14T16:48:32.997Z,50.49
2018-02-14T16:51:04.378Z,50.60
2018-02-14T16:53:31.914Z,51.52
2018-02-14T16:55:59.422Z,52.48
2018-02-14T16:58:28.551Z,51.93
2018-02-14T17:00:56.127Z,52.15
2018-02-14T17:03:29.369Z,52.31
2018-02-14T17:05:59.834Z,52.55
2018-02-14T17:08:28.234Z,53.07
2018-02-14T17:10:55.921Z,53.90
2018-02-14T17:13:23.990Z,54.29
2018-02-14T17:15:52.618Z,54.63
2018-02-14T17:18:21.983Z,55.54
2018-02-14T17:20:52.748Z,55.84
2018-02-14T17:23:23.594Z,55.92
2018-02-14T17:25:51.375Z,56.58
2018-02-14T17:28:22.934Z,56.87
2018-02-14T17:30:52.058Z,57.43
2018-02-14T17:33:19.861Z,57.48
2018-02-14T17:35:47.738Z,57.87
2018-02-14T17:38:16.307Z,58.48
2018-02-14T17:40:45.039Z,58.51
2018-02-14T17:43:14.653Z,58.85
2018-02-14T17:45:42.565Z,58.97
2018-02-14T17:48:11.376Z,58.44
2018-02-14T17:50:39.122Z,59.69
2018-02-14T17:53:06.678Z,60.20
2018-02-14T17:55:35.182Z,60.47
2018-02-14T17:58:02.703Z,59.92
2018-02-14T18:00:30.307Z,59.61
2018-02-14T18:02:57.863Z,59.17
2018-02-14T18:05:25.478Z,59.67
2018-02-14T18:07:53.014Z,61.35
2018-02-14T18:10:20.571Z,61.38
2018-02-14T18:12:48.120Z,61.33
2018-02-14T18:15:15.689Z,60.71
2018-02-14T18:17:43.252Z,62.64
2018-02-14T18:20:10.787Z,61.84
2018-02-14T18:22:38.355Z,61.66
2018-02-14T18:25:05.880Z,61.42
2018-02-14T18:27:33.432Z,61.82
2018-02-14T18:30:00.950Z,60.09
2018-02-14T18:32:28.503Z,59.23
2018-02-14T18:34:58.484Z,58.74
2018-02-14T18:37:26.743Z,58.90
2018-02-14T18:39:54.274Z,58.90
2018-02-14T18:42:21.815Z,58.42
2018-02-14T18:44:49.348Z,58.56
2018-02-14T18:47:16.900Z,58.70
2018-02-14T18:49:44.431Z,58.10
2018-02-14T18:52:11.978Z,58.55
2018-02-14T18:54:39.509Z,57.99
2018-02-14T18:57:07.059Z,58.03
2018-02-14T18:59:35.225Z,57.64
2018-02-14T19:02:03.430Z,57.81
2018-02-14T19:04:31.019Z,58.36
2018-02-14T19:06:58.597Z,57.97
2018-02-14T19:09:26.120Z,57.29
2018-02-14T19:11:53.675Z,58.11
2018-02-14T19:14:21.535Z,57.71
2018-02-14T19:16:49.385Z,57.07
2018-02-14T19:19:17.303Z,57.43
2018-02-14T19:21:44.833Z,57.03
2018-02-14T19:24:12.359Z,57.14
2018-02-14T19:26:39.935Z,57.45
2018-02-14T19:29:07.753Z,57.24
2018-02-14T19:31:35.319Z,56.99
2018-02-14T19:34:02.845Z,57.17
2018-02-14T19:36:30.414Z,57.42
2018-02-14T19:38:57.947Z,56.68
2018-02-14T19:41:25.477Z,56.98
2018-02-14T19:43:53.022Z,57.00
2018-02-14T19:46:22.657Z,57.76
2018-02-14T19:48:52.482Z,57.21
2018-02-14T19:51:20.124Z,57.93
2018-02-14T19:53:47.992Z,56.56
2018-02-14T19:56:16.025Z,57.48
2018-02-14T19:58:43.715Z,57.25
2018-02-14T20:01:12.999Z,57.74
2018-02-14T20:03:40.568Z,58.20
2018-02-14T20:06:09.050Z,56.92
2018-02-14T20:08:36.576Z,57.15
2018-02-14T20:11:04.940Z,59.21
2018-02-14T20:13:32.905Z,57.67
2018-02-14T20:16:03.366Z,57.62
2018-02-14T20:18:32.210Z,58.59
2018-02-14T20:21:00.364Z,59.62
2018-02-14T20:23:29.597Z,59.76
2018-02-14T20:25:58.854Z,61.48
2018-02-14T20:28:26.671Z,62.49
2018-02-14T20:30:54.194Z,63.70
2018-02-14T20:33:21.775Z,61.82
2018-02-14T20:35:49.300Z,63.38
2018-02-14T20:38:16.902Z,60.49
2018-02-14T20:40:44.426Z,61.57
2018-02-14T20:43:11.977Z,62.29
2018-02-14T20:45:40.120Z,61.49
2018-02-14T20:48:08.626Z,62.15
2018-02-14T20:50:38.508Z,63.41
2018-02-14T20:53:07.878Z,62.50
2018-02-14T20:55:36.497Z,66.97
2018-02-14T20:58:05.027Z,66.22
2018-02-14T21:00:35.177Z,64.48
2018-02-14T21:03:04.471Z,63.88
2018-02-14T21:05:33.136Z,64.50
2018-02-14T21:08:00.754Z,65.26
2018-02-14T21:10:29.151Z,64.45
2018-02-14T21:12:57.539Z,64.23
2018-02-14T21:15:27.438Z,64.49
2018-02-14T21:17:55.793Z,64.48
2018-02-14T21:20:23.365Z,64.11
2018-02-14T21:22:50.950Z,64.74
2018-02-14T21:25:18.472Z,64.02
2018-02-14T21:27:46.046Z,65.42
2018-02-14T21:30:14.693Z,68.01
2018-02-14T21:32:42.919Z,71.62
2018-02-14T21:35:10.550Z,73.40
2018-02-14T21:37:38.253Z,71.75
2018-02-14T21:40:06.972Z,70.35
2018-02-14T21:42:35.135Z,70.24
2018-02-14T21:45:03.915Z,68.99
2018-02-14T21:47:34.364Z,70.78
2018-02-14T21:50:03.430Z,71.71
2018-02-14T21:52:31.142Z,70.01
2018-02-14T21:55:01.068Z,68.94
2018-02-14T21:57:28.775Z,68.64
2018-02-14T21:59:59.249Z,68.37
2018-02-14T22:02:28.499Z,70.86
2018-02-14T22:04:56.083Z,72.95
2018-02-14T22:07:25.998Z,72.86
2018-02-14T22:09:53.662Z,73.66
2018-02-14T22:12:21.211Z,73.30
2018-02-14T22:14:48.740Z,71.99
2018-02-14T22:17:17.537Z,70.75
2018-02-14T22:19:45.241Z,68.77
2018-02-14T22:22:14.068Z,68.93
2018-02-14T22:24:42.198Z,68.02
2018-02-14T22:27:10.301Z,67.82
2018-02-14T22:29:40.467Z,68.00
2018-02-14T22:32:08.549Z,68.19
2018-02-14T22:34:38.657Z,67.96
2018-02-14T22:37:07.820Z,68.10
2018-02-14T22:39:35.589Z,68.34
2018-02-14T22:42:04.960Z,68.76
2018-02-14T22:44:33.389Z,67.73
2018-02-14T22:47:02.823Z,68.74
2018-02-14T22:49:31.247Z,69.73
2018-02-14T22:52:01.952Z,68.93
2018-02-14T22:54:30.449Z,68.38
2018-02-14T22:56:58.330Z,68.94
2018-02-14T22:59:26.880Z,69.82
2018-02-14T23:01:55.584Z,70.23
2018-02-14T23:04:23.655Z,69.59
2018-02-14T23:06:52.363Z,72.02
2018-02-14T23:09:22.237Z,75.24
2018-02-14T23:11:51.016Z,75.88
2018-02-14T23:14:19.263Z,73.60
2018-02-14T23:16:48.498Z,72.19
2018-02-14T23:19:17.044Z,69.32
2018-02-14T23:21:46.208Z,68.27
2018-02-14T23:24:13.977Z,68.06
2018-02-14T23:26:43.175Z,68.65
2018-02-14T23:29:12.674Z,69.59
2018-02-14T23:31:40.962Z,69.96
2018-02-14T23:34:08.984Z,69.38
2018-02-14T23:36:38.646Z,69.58
2018-02-14T23:39:06.316Z,69.53
2018-02-14T23:41:36.564Z,69.60
2018-02-14T23:44:04.847Z,69.02
2018-02-14T23:46:34.034Z,69.15
2018-02-14T23:49:01.955Z,69.17
2018-02-14T23:51:34.847Z,69.20
2018-02-14T23:54:03.206Z,69.40
2018-02-14T23:56:30.760Z,70.18
2018-02-14T23:58:58.392Z,69.48
